sensor_id;sensor_type;location;lat;lon;timestamp;pressure;altitude;pressure_sealevel;temperature;humidity
47054;BME280;32811;52.382;5.270;2022-12-07T00:01:32;101884.66;;;2.47;100.00
47054;BME280;32811;52.382;5.270;2022-12-07T00:04:02;101873.88;;;2.36;100.00
47054;BME280;32811;52.382;5.270;2022-12-07T00:06:33;101881.53;;;2.36;100.00
47054;BME280;32811;52.382;5.270;2022-12-07T00:09:00;101869.00;;;2.24;100.00
47054;BME280;32811;52.382;5.270;2022-12-07T00:11:28;101874.19;;;2.26;100.00
47054;BME280;32811;52.382;5.270;2022-12-07T00:14:03;101882.78;;;2.28;100.00
47054;BME280;32811;52.382;5.270;2022-12-07T00:16:32;101876.19;;;2.32;100.00
47054;BME280;32811;52.382;5.270;2022-12-07T00:18:59;101876.03;;;2.28;100.00
47054;BME280;32811;52.382;5.270;2022-12-07T00:21:28;101884.63;;;2.31;100.00
47054;BME280;32811;52.382;5.270;2022-12-07T00:23:55;101872.75;;;2.31;100.00
47054;BME280;32811;52.382;5.270;2022-12-07T00:28:55;101870.75;;;2.25;100.00
47054;BME280;32811;52.382;5.270;2022-12-07T00:31:25;101868.13;;;2.24;100.00
47054;BME280;32811;52.382;5.270;2022-12-07T00:33:52;101860.66;;;2.27;100.00
47054;BME280;32811;52.382;5.270;2022-12-07T00:36:22;101866.19;;;2.35;100.00
47054;BME280;32811;52.382;5.270;2022-12-07T00:38:54;101860.13;;;2.33;100.00
47054;BME280;32811;52.382;5.270;2022-12-07T00:41:23;101848.72;;;2.26;100.00
47054;BME280;32811;52.382;5.270;2022-12-07T00:43:50;101853.34;;;2.33;100.00
47054;BME280;32811;52.382;5.270;2022-12-07T00:46:18;101851.31;;;2.27;100.00
47054;BME280;32811;52.382;5.270;2022-12-07T00:48:47;101851.00;;;2.21;100.00
47054;BME280;32811;52.382;5.270;2022-12-07T00:51:16;101839.63;;;2.15;100.00
47054;BME280;32811;52.382;5.270;2022-12-07T00:54:03;101849.09;;;2.17;100.00
47054;BME280;32811;52.382;5.270;2022-12-07T00:56:30;101842.88;;;2.12;100.00
47054;BME280;32811;52.382;5.270;2022-12-07T00:59:00;101847.97;;;2.12;100.00
47054;BME280;32811;52.382;5.270;2022-12-07T01:01:30;101840.00;;;2.06;100.00
47054;BME280;32811;52.382;5.270;2022-12-07T01:03:57;101846.81;;;2.07;100.00
47054;BME280;32811;52.382;5.270;2022-12-07T01:06:25;101843.59;;;1.95;100.00
47054;BME280;32811;52.382;5.270;2022-12-07T01:08:53;101857.47;;;2.00;100.00
47054;BME280;32811;52.382;5.270;2022-12-07T01:11:24;101861.59;;;1.98;100.00
47054;BME280;32811;52.382;5.270;2022-12-07T01:13:53;101861.50;;;1.96;100.00
47054;BME280;32811;52.382;5.270;2022-12-07T01:16:27;101834.06;;;1.76;100.00
47054;BME280;32811;52.382;5.270;2022-12-07T01:19:10;101860.38;;;1.91;100.00
47054;BME280;32811;52.382;5.270;2022-12-07T01:21:41;101864.59;;;1.91;100.00
47054;BME280;32811;52.382;5.270;2022-12-07T01:24:11;101858.28;;;1.84;100.00
47054;BME280;32811;52.382;5.270;2022-12-07T01:26:42;101809.06;;;1.54;100.00
47054;BME280;32811;52.382;5.270;2022-12-07T01:29:12;101799.44;;;1.48;100.00
47054;BME280;32811;52.382;5.270;2022-12-07T01:31:41;101845.28;;;1.79;100.00
47054;BME280;32811;52.382;5.270;2022-12-07T01:34:13;101858.78;;;1.93;100.00
47054;BME280;32811;52.382;5.270;2022-12-07T01:37:01;101861.22;;;2.06;100.00
47054;BME280;32811;52.382;5.270;2022-12-07T01:39:32;101862.59;;;2.16;100.00
47054;BME280;32811;52.382;5.270;2022-12-07T01:42:18;101867.56;;;2.29;100.00
47054;BME280;32811;52.382;5.270;2022-12-07T01:48:00;101858.34;;;2.32;100.00
47054;BME280;32811;52.382;5.270;2022-12-07T01:51:25;101866.78;;;2.31;100.00
47054;BME280;32811;52.382;5.270;2022-12-07T01:54:29;101842.41;;;2.19;100.00
47054;BME280;32811;52.382;5.270;2022-12-07T01:57:53;101789.91;;;1.90;100.00
47054;BME280;32811;52.382;5.270;2022-12-07T02:01:00;101809.34;;;2.04;100.00
47054;BME280;32811;52.382;5.270;2022-12-07T02:03:47;101854.41;;;2.37;100.00
47054;BME280;32811;52.382;5.270;2022-12-07T02:06:22;101845.13;;;2.39;100.00
47054;BME280;32811;52.382;5.270;2022-12-07T02:09:39;101846.19;;;2.42;100.00
47054;BME280;32811;52.382;5.270;2022-12-07T02:12:55;101843.72;;;2.44;100.00
47054;BME280;32811;52.382;5.270;2022-12-07T02:28:45;101820.81;;;2.44;100.00
47054;BME280;32811;52.382;5.270;2022-12-07T02:31:17;101823.50;;;2.47;100.00
47054;BME280;32811;52.382;5.270;2022-12-07T02:33:54;101813.78;;;2.56;100.00
47054;BME280;32811;52.382;5.270;2022-12-07T02:36:31;101816.59;;;2.77;100.00
47054;BME280;32811;52.382;5.270;2022-12-07T02:39:08;101808.88;;;2.76;100.00
47054;BME280;32811;52.382;5.270;2022-12-07T02:41:46;101821.75;;;2.79;100.00
47054;BME280;32811;52.382;5.270;2022-12-07T02:44:17;101818.34;;;2.78;100.00
47054;BME280;32811;52.382;5.270;2022-12-07T02:46:54;101818.19;;;2.75;100.00
47054;BME280;32811;52.382;5.270;2022-12-07T02:49:24;101805.75;;;2.65;100.00
47054;BME280;32811;52.382;5.270;2022-12-07T02:51:53;101820.94;;;2.63;100.00
47054;BME280;32811;52.382;5.270;2022-12-07T02:54:20;101809.56;;;2.57;100.00
47054;BME280;32811;52.382;5.270;2022-12-07T02:56:57;101816.34;;;2.56;100.00
47054;BME280;32811;52.382;5.270;2022-12-07T03:02:58;101823.84;;;2.53;100.00
47054;BME280;32811;52.382;5.270;2022-12-07T03:13:14;101827.06;;;2.34;100.00
47054;BME280;32811;52.382;5.270;2022-12-07T03:15:57;101832.53;;;2.25;100.00
47054;BME280;32811;52.382;5.270;2022-12-07T03:18:32;101833.19;;;2.21;100.00
47054;BME280;32811;52.382;5.270;2022-12-07T03:21:06;101832.84;;;2.15;100.00
47054;BME280;32811;52.382;5.270;2022-12-07T03:23:37;101843.03;;;2.15;100.00
47054;BME280;32811;52.382;5.270;2022-12-07T03:26:09;101827.31;;;2.07;100.00
47054;BME280;32811;52.382;5.270;2022-12-07T03:28:40;101821.34;;;2.07;100.00
47054;BME280;32811;52.382;5.270;2022-12-07T03:31:28;101818.09;;;2.10;100.00
47054;BME280;32811;52.382;5.270;2022-12-07T03:34:14;101821.13;;;2.19;100.00
47054;BME280;32811;52.382;5.270;2022-12-07T03:39:33;101803.66;;;2.25;100.00
47054;BME280;32811;52.382;5.270;2022-12-07T03:42:04;101809.94;;;2.32;100.00
47054;BME280;32811;52.382;5.270;2022-12-07T03:44:33;101791.00;;;2.26;100.00
47054;BME280;32811;52.382;5.270;2022-12-07T03:47:05;101800.22;;;2.24;100.00
47054;BME280;32811;52.382;5.270;2022-12-07T03:49:43;101795.59;;;2.17;100.00
47054;BME280;32811;52.382;5.270;2022-12-07T03:52:25;101797.09;;;2.14;100.00
47054;BME280;32811;52.382;5.270;2022-12-07T03:55:00;101804.69;;;2.12;100.00
47054;BME280;32811;52.382;5.270;2022-12-07T03:57:30;101800.72;;;2.02;100.00
47054;BME280;32811;52.382;5.270;2022-12-07T03:59:58;101804.97;;;2.02;100.00
47054;BME280;32811;52.382;5.270;2022-12-07T04:02:27;101802.06;;;1.96;100.00
47054;BME280;32811;52.382;5.270;2022-12-07T04:04:55;101793.84;;;1.85;100.00
47054;BME280;32811;52.382;5.270;2022-12-07T04:07:23;101795.41;;;1.83;100.00
47054;BME280;32811;52.382;5.270;2022-12-07T04:09:50;101795.81;;;1.74;100.00
47054;BME280;32811;52.382;5.270;2022-12-07T04:12:16;101797.13;;;1.68;100.00
47054;BME280;32811;52.382;5.270;2022-12-07T04:14:43;101797.75;;;1.63;100.00
47054;BME280;32811;52.382;5.270;2022-12-07T04:17:10;101798.47;;;1.61;100.00
47054;BME280;32811;52.382;5.270;2022-12-07T04:19:37;101793.78;;;1.54;100.00
47054;BME280;32811;52.382;5.270;2022-12-07T04:22:05;101806.78;;;1.58;100.00
47054;BME280;32811;52.382;5.270;2022-12-07T04:24:33;101805.91;;;1.58;100.00
47054;BME280;32811;52.382;5.270;2022-12-07T04:27:00;101801.88;;;1.61;100.00
47054;BME280;32811;52.382;5.270;2022-12-07T04:29:27;101808.09;;;1.66;100.00
47054;BME280;32811;52.382;5.270;2022-12-07T04:31:54;101807.47;;;1.71;100.00
47054;BME280;32811;52.382;5.270;2022-12-07T04:34:20;101812.22;;;1.79;100.00
47054;BME280;32811;52.382;5.270;2022-12-07T04:36:48;101804.97;;;1.87;100.00
47054;BME280;32811;52.382;5.270;2022-12-07T04:39:22;101796.97;;;1.96;100.00
47054;BME280;32811;52.382;5.270;2022-12-07T04:41:50;101797.94;;;1.98;100.00
47054;BME280;32811;52.382;5.270;2022-12-07T04:44:18;101798.91;;;2.00;100.00
47054;BME280;32811;52.382;5.270;2022-12-07T04:46:45;101794.63;;;1.99;100.00
47054;BME280;32811;52.382;5.270;2022-12-07T04:49:13;101792.13;;;2.00;100.00
47054;BME280;32811;52.382;5.270;2022-12-07T04:51:43;101793.53;;;2.10;100.00
47054;BME280;32811;52.382;5.270;2022-12-07T04:54:10;101783.66;;;2.16;100.00
47054;BME280;32811;52.382;5.270;2022-12-07T04:56:37;101784.59;;;2.18;100.00
47054;BME280;32811;52.382;5.270;2022-12-07T04:59:04;101769.72;;;2.10;100.00
47054;BME280;32811;52.382;5.270;2022-12-07T05:01:32;101782.88;;;2.17;100.00
47054;BME280;32811;52.382;5.270;2022-12-07T05:03:59;101766.28;;;2.09;100.00
47054;BME280;32811;52.382;5.270;2022-12-07T05:06:26;101787.50;;;2.24;100.00
47054;BME280;32811;52.382;5.270;2022-12-07T05:08:53;101784.22;;;2.27;100.00
47054;BME280;32811;52.382;5.270;2022-12-07T05:11:20;101784.47;;;2.32;100.00
47054;BME280;32811;52.382;5.270;2022-12-07T05:14:13;101787.09;;;2.33;100.00
47054;BME280;32811;52.382;5.270;2022-12-07T05:16:42;101778.25;;;2.26;100.00
47054;BME280;32811;52.382;5.270;2022-12-07T05:19:10;101778.16;;;2.25;100.00
47054;BME280;32811;52.382;5.270;2022-12-07T05:21:38;101786.06;;;2.29;100.00
47054;BME280;32811;52.382;5.270;2022-12-07T05:24:06;101779.75;;;2.23;100.00
47054;BME280;32811;52.382;5.270;2022-12-07T05:26:33;101791.63;;;2.22;100.00
47054;BME280;32811;52.382;5.270;2022-12-07T05:29:00;101786.00;;;2.28;100.00
47054;BME280;32811;52.382;5.270;2022-12-07T05:31:27;101782.63;;;2.29;100.00
47054;BME280;32811;52.382;5.270;2022-12-07T05:33:54;101790.72;;;2.37;100.00
47054;BME280;32811;52.382;5.270;2022-12-07T05:36:22;101790.13;;;2.42;100.00
47054;BME280;32811;52.382;5.270;2022-12-07T05:38:49;101788.41;;;2.41;100.00
47054;BME280;32811;52.382;5.270;2022-12-07T05:41:17;101794.03;;;2.52;100.00
47054;BME280;32811;52.382;5.270;2022-12-07T05:44:03;101784.66;;;2.51;100.00
47054;BME280;32811;52.382;5.270;2022-12-07T05:46:31;101787.09;;;2.49;100.00
47054;BME280;32811;52.382;5.270;2022-12-07T05:48:58;101784.94;;;2.41;100.00
47054;BME280;32811;52.382;5.270;2022-12-07T05:51:24;101786.72;;;2.42;100.00
47054;BME280;32811;52.382;5.270;2022-12-07T05:53:51;101780.91;;;2.44;100.00
47054;BME280;32811;52.382;5.270;2022-12-07T05:56:18;101775.09;;;2.47;100.00
47054;BME280;32811;52.382;5.270;2022-12-07T05:58:45;101774.13;;;2.45;100.00
47054;BME280;32811;52.382;5.270;2022-12-07T06:01:30;101774.06;;;2.43;100.00
47054;BME280;32811;52.382;5.270;2022-12-07T06:03:58;101770.81;;;2.46;100.00
47054;BME280;32811;52.382;5.270;2022-12-07T06:06:25;101757.72;;;2.40;100.00
47054;BME280;32811;52.382;5.270;2022-12-07T06:08:52;101768.69;;;2.39;100.00
47054;BME280;32811;52.382;5.270;2022-12-07T06:11:19;101769.13;;;2.30;100.00
47054;BME280;32811;52.382;5.270;2022-12-07T06:14:04;101772.13;;;2.23;100.00
47054;BME280;32811;52.382;5.270;2022-12-07T06:16:31;101767.41;;;2.14;100.00
47054;BME280;32811;52.382;5.270;2022-12-07T06:18:58;101773.84;;;2.07;100.00
47054;BME280;32811;52.382;5.270;2022-12-07T06:21:24;101779.34;;;1.99;100.00
47054;BME280;32811;52.382;5.270;2022-12-07T06:23:53;101761.56;;;1.84;100.00
47054;BME280;32811;52.382;5.270;2022-12-07T06:26:20;101769.66;;;1.77;100.00
47054;BME280;32811;52.382;5.270;2022-12-07T06:28:46;101760.44;;;1.64;100.00
47054;BME280;32811;52.382;5.270;2022-12-07T06:31:13;101776.78;;;1.68;100.00
47054;BME280;32811;52.382;5.270;2022-12-07T06:33:40;101786.69;;;1.63;100.00
47054;BME280;32811;52.382;5.270;2022-12-07T06:36:08;101779.50;;;1.56;100.00
47054;BME280;32811;52.382;5.270;2022-12-07T06:38:35;101786.72;;;1.48;100.00
47054;BME280;32811;52.382;5.270;2022-12-07T06:41:02;101782.22;;;1.44;100.00
47054;BME280;32811;52.382;5.270;2022-12-07T06:43:29;101776.78;;;1.38;100.00
47054;BME280;32811;52.382;5.270;2022-12-07T06:45:55;101781.53;;;1.32;100.00
47054;BME280;32811;52.382;5.270;2022-12-07T06:48:22;101793.38;;;1.31;100.00
47054;BME280;32811;52.382;5.270;2022-12-07T06:50:49;101787.59;;;1.19;100.00
47054;BME280;32811;52.382;5.270;2022-12-07T06:53:21;101800.47;;;1.22;100.00
47054;BME280;32811;52.382;5.270;2022-12-07T06:55:48;101781.97;;;1.10;100.00
47054;BME280;32811;52.382;5.270;2022-12-07T06:58:15;101787.13;;;1.11;100.00
47054;BME280;32811;52.382;5.270;2022-12-07T07:00:42;101784.31;;;1.07;100.00
47054;BME280;32811;52.382;5.270;2022-12-07T07:03:09;101797.25;;;1.10;100.00
47054;BME280;32811;52.382;5.270;2022-12-07T07:05:36;101789.25;;;1.03;100.00
47054;BME280;32811;52.382;5.270;2022-12-07T07:08:03;101791.00;;;1.04;100.00
47054;BME280;32811;52.382;5.270;2022-12-07T07:10:47;101797.13;;;1.08;100.00
47054;BME280;32811;52.382;5.270;2022-12-07T07:13:14;101778.13;;;1.01;100.00
47054;BME280;32811;52.382;5.270;2022-12-07T07:15:41;101790.75;;;1.15;100.00
47054;BME280;32811;52.382;5.270;2022-12-07T07:18:08;101793.19;;;1.13;100.00
47054;BME280;32811;52.382;5.270;2022-12-07T07:20:35;101791.19;;;1.08;100.00
47054;BME280;32811;52.382;5.270;2022-12-07T07:23:01;101794.34;;;1.03;100.00
47054;BME280;32811;52.382;5.270;2022-12-07T07:25:28;101780.28;;;0.95;100.00
47054;BME280;32811;52.382;5.270;2022-12-07T07:27:55;101765.22;;;0.83;100.00
47054;BME280;32811;52.382;5.270;2022-12-07T07:30:22;101796.25;;;0.93;100.00
47054;BME280;32811;52.382;5.270;2022-12-07T07:32:49;101791.84;;;0.90;100.00
47054;BME280;32811;52.382;5.270;2022-12-07T07:35:16;101802.28;;;0.95;100.00
47054;BME280;32811;52.382;5.270;2022-12-07T07:37:43;101801.44;;;0.94;100.00
47054;BME280;32811;52.382;5.270;2022-12-07T07:40:10;101799.84;;;0.96;100.00
47054;BME280;32811;52.382;5.270;2022-12-07T07:42:37;101803.63;;;1.03;100.00
47054;BME280;32811;52.382;5.270;2022-12-07T07:45:04;101799.59;;;1.07;100.00
47054;BME280;32811;52.382;5.270;2022-12-07T07:47:31;101805.03;;;1.13;100.00
47054;BME280;32811;52.382;5.270;2022-12-07T07:49:58;101803.03;;;1.22;100.00
47054;BME280;32811;52.382;5.270;2022-12-07T07:52:25;101806.72;;;1.42;100.00
47054;BME280;32811;52.382;5.270;2022-12-07T07:54:52;101794.16;;;1.45;100.00
47054;BME280;32811;52.382;5.270;2022-12-07T07:57:19;101798.28;;;1.58;100.00
47054;BME280;32811;52.382;5.270;2022-12-07T07:59:45;101805.28;;;1.62;100.00
47054;BME280;32811;52.382;5.270;2022-12-07T08:02:15;101791.75;;;1.63;100.00
47054;BME280;32811;52.382;5.270;2022-12-07T08:04:41;101801.41;;;1.69;100.00
47054;BME280;32811;52.382;5.270;2022-12-07T08:07:08;101808.59;;;1.76;100.00
47054;BME280;32811;52.382;5.270;2022-12-07T08:09:35;101803.06;;;1.83;100.00
47054;BME280;32811;52.382;5.270;2022-12-07T08:12:02;101798.88;;;1.83;100.00
47054;BME280;32811;52.382;5.270;2022-12-07T08:14:29;101799.03;;;1.86;100.00
47054;BME280;32811;52.382;5.270;2022-12-07T08:16:55;101803.50;;;1.91;100.00
47054;BME280;32811;52.382;5.270;2022-12-07T08:19:22;101812.25;;;1.96;100.00
47054;BME280;32811;52.382;5.270;2022-12-07T08:21:48;101800.56;;;1.99;100.00
47054;BME280;32811;52.382;5.270;2022-12-07T08:24:15;101808.28;;;2.01;100.00
47054;BME280;32811;52.382;5.270;2022-12-07T08:26:42;101796.50;;;2.03;100.00
47054;BME280;32811;52.382;5.270;2022-12-07T08:29:09;101804.59;;;2.11;100.00
47054;BME280;32811;52.382;5.270;2022-12-07T08:31:38;101808.00;;;2.11;100.00
47054;BME280;32811;52.382;5.270;2022-12-07T08:34:05;101800.03;;;2.05;100.00
47054;BME280;32811;52.382;5.270;2022-12-07T08:36:31;101805.72;;;2.01;100.00
47054;BME280;32811;52.382;5.270;2022-12-07T08:38:58;101812.50;;;2.00;100.00
47054;BME280;32811;52.382;5.270;2022-12-07T08:41:45;101816.63;;;1.98;100.00
47054;BME280;32811;52.382;5.270;2022-12-07T08:44:11;101814.22;;;2.16;100.00
47054;BME280;32811;52.382;5.270;2022-12-07T08:46:41;101811.72;;;2.33;100.00
47054;BME280;32811;52.382;5.270;2022-12-07T08:49:16;101815.13;;;2.49;100.00
47054;BME280;32811;52.382;5.270;2022-12-07T08:51:44;101815.94;;;2.65;100.00
47054;BME280;32811;52.382;5.270;2022-12-07T08:54:14;101808.38;;;2.66;100.00
47054;BME280;32811;52.382;5.270;2022-12-07T08:56:43;101803.28;;;2.66;100.00
47054;BME280;32811;52.382;5.270;2022-12-07T08:59:13;101789.34;;;2.60;100.00
47054;BME280;32811;52.382;5.270;2022-12-07T09:01:40;101792.00;;;2.61;100.00
47054;BME280;32811;52.382;5.270;2022-12-07T09:04:07;101802.91;;;2.75;100.00
47054;BME280;32811;52.382;5.270;2022-12-07T09:06:34;101801.31;;;2.77;100.00
47054;BME280;32811;52.382;5.270;2022-12-07T09:09:01;101809.97;;;2.81;100.00
47054;BME280;32811;52.382;5.270;2022-12-07T09:11:28;101809.72;;;2.76;100.00
47054;BME280;32811;52.382;5.270;2022-12-07T09:13:55;101803.69;;;2.74;100.00
47054;BME280;32811;52.382;5.270;2022-12-07T09:16:22;101804.41;;;2.72;100.00
47054;BME280;32811;52.382;5.270;2022-12-07T09:18:49;101806.94;;;2.72;100.00
47054;BME280;32811;52.382;5.270;2022-12-07T09:21:15;101807.81;;;2.72;100.00
47054;BME280;32811;52.382;5.270;2022-12-07T09:23:42;101798.53;;;2.73;100.00
47054;BME280;32811;52.382;5.270;2022-12-07T09:26:10;101805.69;;;2.80;100.00
47054;BME280;32811;52.382;5.270;2022-12-07T09:28:37;101811.16;;;2.87;100.00
47054;BME280;32811;52.382;5.270;2022-12-07T09:31:05;101805.66;;;2.96;100.00
47054;BME280;32811;52.382;5.270;2022-12-07T09:33:55;101810.03;;;2.99;100.00
47054;BME280;32811;52.382;5.270;2022-12-07T09:36:22;101805.34;;;3.06;100.00
47054;BME280;32811;52.382;5.270;2022-12-07T09:38:49;101802.44;;;3.17;100.00
47054;BME280;32811;52.382;5.270;2022-12-07T09:41:16;101809.56;;;3.40;100.00
47054;BME280;32811;52.382;5.270;2022-12-07T09:43:42;101800.44;;;3.45;100.00
47054;BME280;32811;52.382;5.270;2022-12-07T09:46:14;101805.72;;;3.48;100.00
47054;BME280;32811;52.382;5.270;2022-12-07T09:48:44;101803.63;;;3.41;100.00
47054;BME280;32811;52.382;5.270;2022-12-07T09:51:18;101809.34;;;3.36;100.00
47054;BME280;32811;52.382;5.270;2022-12-07T09:53:51;101798.09;;;3.32;100.00
47054;BME280;32811;52.382;5.270;2022-12-07T09:56:19;101796.41;;;3.32;100.00
47054;BME280;32811;52.382;5.270;2022-12-07T09:58:46;101796.34;;;3.31;100.00
47054;BME280;32811;52.382;5.270;2022-12-07T10:01:19;101796.50;;;3.34;100.00
47054;BME280;32811;52.382;5.270;2022-12-07T10:03:52;101795.75;;;3.37;100.00
47054;BME280;32811;52.382;5.270;2022-12-07T10:06:20;101791.56;;;3.37;100.00
47054;BME280;32811;52.382;5.270;2022-12-07T10:08:47;101785.84;;;3.43;100.00
47054;BME280;32811;52.382;5.270;2022-12-07T10:11:14;101779.81;;;3.41;100.00
47054;BME280;32811;52.382;5.270;2022-12-07T10:13:48;101775.78;;;3.64;100.00
47054;BME280;32811;52.382;5.270;2022-12-07T10:16:31;101780.63;;;3.58;100.00
47054;BME280;32811;52.382;5.270;2022-12-07T10:19:18;101774.72;;;3.59;100.00
47054;BME280;32811;52.382;5.270;2022-12-07T10:22:05;101776.41;;;3.58;100.00
47054;BME280;32811;52.382;5.270;2022-12-07T10:24:32;101743.44;;;3.45;100.00
47054;BME280;32811;52.382;5.270;2022-12-07T10:26:58;101758.75;;;3.63;100.00
47054;BME280;32811;52.382;5.270;2022-12-07T10:32:06;101770.53;;;3.79;100.00
47054;BME280;32811;52.382;5.270;2022-12-07T10:34:51;101767.19;;;3.98;100.00
47054;BME280;32811;52.382;5.270;2022-12-07T10:37:41;101759.31;;;4.12;100.00
47054;BME280;32811;52.382;5.270;2022-12-07T10:43:04;101769.72;;;4.15;100.00
47054;BME280;32811;52.382;5.270;2022-12-07T10:45:32;101763.84;;;4.18;100.00
47054;BME280;32811;52.382;5.270;2022-12-07T11:05:53;101736.16;;;4.27;100.00
47054;BME280;32811;52.382;5.270;2022-12-07T11:14:48;101736.75;;;4.22;100.00
47054;BME280;32811;52.382;5.270;2022-12-07T11:17:27;101722.34;;;4.24;100.00
47054;BME280;32811;52.382;5.270;2022-12-07T11:31:50;101718.53;;;5.14;100.00
47054;BME280;32811;52.382;5.270;2022-12-07T11:36:56;101702.25;;;5.12;100.00
47054;BME280;32811;52.382;5.270;2022-12-07T11:39:33;101714.19;;;5.12;100.00
47054;BME280;32811;52.382;5.270;2022-12-07T11:42:06;101708.63;;;5.01;100.00
47054;BME280;32811;52.382;5.270;2022-12-07T11:44:46;101708.50;;;4.98;100.00
47054;BME280;32811;52.382;5.270;2022-12-07T11:47:35;101694.81;;;4.97;100.00
47054;BME280;32811;52.382;5.270;2022-12-07T11:52:58;101686.69;;;5.29;100.00
47054;BME280;32811;52.382;5.270;2022-12-07T11:55:31;101688.81;;;5.61;100.00
47054;BME280;32811;52.382;5.270;2022-12-07T11:58:09;101682.22;;;5.91;100.00
47054;BME280;32811;52.382;5.270;2022-12-07T12:00:41;101685.16;;;6.00;100.00
47054;BME280;32811;52.382;5.270;2022-12-07T12:03:12;101675.97;;;6.05;100.00
47054;BME280;32811;52.382;5.270;2022-12-07T12:05:42;101670.63;;;6.00;100.00
47054;BME280;32811;52.382;5.270;2022-12-07T12:08:19;101684.84;;;5.92;100.00
47054;BME280;32811;52.382;5.270;2022-12-07T12:17:43;101672.50;;;5.59;100.00
47054;BME280;32811;52.382;5.270;2022-12-07T12:20:23;101670.94;;;5.63;100.00
47054;BME280;32811;52.382;5.270;2022-12-07T12:23:10;101657.31;;;5.64;100.00
47054;BME280;32811;52.382;5.270;2022-12-07T12:25:50;101647.66;;;5.57;100.00
47054;BME280;32811;52.382;5.270;2022-12-07T12:33:59;101643.47;;;5.36;100.00
47054;BME280;32811;52.382;5.270;2022-12-07T12:39:10;101653.53;;;5.32;100.00
47054;BME280;32811;52.382;5.270;2022-12-07T12:49:43;101629.31;;;5.69;100.00
47054;BME280;32811;52.382;5.270;2022-12-07T12:55:17;101635.06;;;6.08;100.00
47054;BME280;32811;52.382;5.270;2022-12-07T13:00:47;101639.63;;;6.17;100.00
47054;BME280;32811;52.382;5.270;2022-12-07T13:03:30;101651.84;;;6.00;100.00
47054;BME280;32811;52.382;5.270;2022-12-07T13:08:52;101656.13;;;5.33;100.00
47054;BME280;32811;52.382;5.270;2022-12-07T13:11:32;101649.25;;;5.10;100.00
47054;BME280;32811;52.382;5.270;2022-12-07T13:14:39;101648.28;;;4.85;100.00
47054;BME280;32811;52.382;5.270;2022-12-07T13:20:03;101615.72;;;4.81;100.00
47054;BME280;32811;52.382;5.270;2022-12-07T13:25:07;101617.69;;;4.88;100.00
47054;BME280;32811;52.382;5.270;2022-12-07T13:27:37;101608.16;;;4.84;100.00
47054;BME280;32811;52.382;5.270;2022-12-07T13:30:19;101598.66;;;4.82;100.00
47054;BME280;32811;52.382;5.270;2022-12-07T13:32:55;101589.88;;;4.75;100.00
47054;BME280;32811;52.382;5.270;2022-12-07T13:35:36;101593.38;;;4.77;100.00
47054;BME280;32811;52.382;5.270;2022-12-07T13:38:19;101589.88;;;4.75;100.00
47054;BME280;32811;52.382;5.270;2022-12-07T13:43:52;101581.41;;;4.76;100.00
47054;BME280;32811;52.382;5.270;2022-12-07T13:46:40;101579.84;;;4.79;100.00
47054;BME280;32811;52.382;5.270;2022-12-07T13:49:27;101575.63;;;4.80;100.00
47054;BME280;32811;52.382;5.270;2022-12-07T13:52:06;101567.81;;;4.77;100.00
47054;BME280;32811;52.382;5.270;2022-12-07T13:54:33;101576.59;;;4.84;100.00
47054;BME280;32811;52.382;5.270;2022-12-07T13:57:00;101573.97;;;4.82;100.00
47054;BME280;32811;52.382;5.270;2022-12-07T13:59:26;101573.97;;;4.82;100.00
47054;BME280;32811;52.382;5.270;2022-12-07T14:01:53;101558.50;;;4.79;100.00
47054;BME280;32811;52.382;5.270;2022-12-07T14:04:33;101567.88;;;4.78;100.00
47054;BME280;32811;52.382;5.270;2022-12-07T14:10:34;101563.34;;;4.71;100.00
47054;BME280;32811;52.382;5.270;2022-12-07T14:13:19;101557.22;;;4.68;100.00
47054;BME280;32811;52.382;5.270;2022-12-07T14:15:54;101552.78;;;4.64;100.00
47054;BME280;32811;52.382;5.270;2022-12-07T14:23:38;101560.16;;;4.56;100.00
47054;BME280;32811;52.382;5.270;2022-12-07T14:26:09;101541.91;;;4.47;100.00
47054;BME280;32811;52.382;5.270;2022-12-07T14:28:37;101541.91;;;4.47;100.00
47054;BME280;32811;52.382;5.270;2022-12-07T14:31:13;101550.34;;;4.46;100.00
47054;BME280;32811;52.382;5.270;2022-12-07T14:33:50;101554.53;;;4.44;100.00
47054;BME280;32811;52.382;5.270;2022-12-07T14:36:17;101542.63;;;4.44;100.00
47054;BME280;32811;52.382;5.270;2022-12-07T14:38:44;101541.38;;;4.34;100.00
47054;BME280;32811;52.382;5.270;2022-12-07T14:41:17;101537.13;;;4.35;100.00
47054;BME280;32811;52.382;5.270;2022-12-07T14:44:10;101540.69;;;4.39;100.00
47054;BME280;32811;52.382;5.270;2022-12-07T14:46:58;101536.19;;;4.33;100.00
47054;BME280;32811;52.382;5.270;2022-12-07T14:49:44;101546.38;;;4.31;100.00
47054;BME280;32811;52.382;5.270;2022-12-07T14:52:23;101543.00;;;4.32;100.00
47054;BME280;32811;52.382;5.270;2022-12-07T14:55:20;101542.03;;;4.29;100.00
47054;BME280;32811;52.382;5.270;2022-12-07T14:57:49;101544.69;;;4.32;100.00
47054;BME280;32811;52.382;5.270;2022-12-07T15:00:16;101536.75;;;4.26;100.00
47054;BME280;32811;52.382;5.270;2022-12-07T15:02:45;101534.78;;;4.19;100.00
47054;BME280;32811;52.382;5.270;2022-12-07T15:05:12;101537.31;;;4.19;100.00
47054;BME280;32811;52.382;5.270;2022-12-07T15:07:42;101525.97;;;4.12;100.00
47054;BME280;32811;52.382;5.270;2022-12-07T15:10:16;101524.09;;;4.08;100.00
47054;BME280;32811;52.382;5.270;2022-12-07T15:12:50;101528.41;;;4.09;100.00
47054;BME280;32811;52.382;5.270;2022-12-07T15:15:16;101520.22;;;3.97;100.00
47054;BME280;32811;52.382;5.270;2022-12-07T15:17:43;101532.13;;;3.96;100.00
47054;BME280;32811;52.382;5.270;2022-12-07T15:20:14;101537.22;;;3.96;100.00
47054;BME280;32811;52.382;5.270;2022-12-07T15:22:43;101528.16;;;3.83;100.00
47054;BME280;32811;52.382;5.270;2022-12-07T15:25:13;101539.31;;;3.85;100.00